sensor_id;sensor_type;location;lat;lon;timestamp;temperature;humidity
27759;DHT22;15148;48.972;12.794;2023-05-20T00:04:53;13.90;99.90
27759;DHT22;15148;48.972;12.794;2023-05-20T00:09:55;13.90;99.90
27759;DHT22;15148;48.972;12.794;2023-05-20T00:14:57;13.90;99.90
27759;DHT22;15148;48.972;12.794;2023-05-20T00:19:58;13.90;99.90
27759;DHT22;15148;48.972;12.794;2023-05-20T00:25:01;13.80;99.90
27759;DHT22;15148;48.972;12.794;2023-05-20T00:30:03;13.80;99.90
27759;DHT22;15148;48.972;12.794;2023-05-20T00:35:05;13.80;99.90
27759;DHT22;15148;48.972;12.794;2023-05-20T00:40:07;13.70;99.90
27759;DHT22;15148;48.972;12.794;2023-05-20T00:45:10;13.70;99.90
27759;DHT22;15148;48.972;12.794;2023-05-20T00:50:12;13.60;99.90
27759;DHT22;15148;48.972;12.794;2023-05-20T00:55:13;13.60;99.90
27759;DHT22;15148;48.972;12.794;2023-05-20T01:00:15;13.60;99.90
27759;DHT22;15148;48.972;12.794;2023-05-20T01:05:17;13.60;99.90
27759;DHT22;15148;48.972;12.794;2023-05-20T01:10:22;13.70;99.90
27759;DHT22;15148;48.972;12.794;2023-05-20T01:15:26;13.70;99.90
27759;DHT22;15148;48.972;12.794;2023-05-20T01:20:29;13.70;99.90
27759;DHT22;15148;48.972;12.794;2023-05-20T01:25:33;13.60;99.90
27759;DHT22;15148;48.972;12.794;2023-05-20T01:30:42;13.60;99.90
27759;DHT22;15148;48.972;12.794;2023-05-20T01:35:47;13.70;99.90
27759;DHT22;15148;48.972;12.794;2023-05-20T01:40:50;13.80;99.90
27759;DHT22;15148;48.972;12.794;2023-05-20T01:45:53;13.70;99.90
27759;DHT22;15148;48.972;12.794;2023-05-20T01:50:55;13.70;99.90
27759;DHT22;15148;48.972;12.794;2023-05-20T01:55:57;13.70;99.90
27759;DHT22;15148;48.972;12.794;2023-05-20T02:01:00;13.60;99.90
27759;DHT22;15148;48.972;12.794;2023-05-20T02:06:04;13.60;99.90
27759;DHT22;15148;48.972;12.794;2023-05-20T02:11:06;13.60;99.90
27759;DHT22;15148;48.972;12.794;2023-05-20T02:16:08;13.60;99.90
27759;DHT22;15148;48.972;12.794;2023-05-20T02:21:09;13.60;99.90
27759;DHT22;15148;48.972;12.794;2023-05-20T02:26:11;13.60;99.90
27759;DHT22;15148;48.972;12.794;2023-05-20T02:31:13;13.50;99.90
27759;DHT22;15148;48.972;12.794;2023-05-20T02:36:15;13.50;99.90
27759;DHT22;15148;48.972;12.794;2023-05-20T02:41:18;13.40;99.90
27759;DHT22;15148;48.972;12.794;2023-05-20T02:46:21;13.40;99.90
27759;DHT22;15148;48.972;12.794;2023-05-20T02:51:24;13.40;99.90
27759;DHT22;15148;48.972;12.794;2023-05-20T02:56:26;13.40;99.90
27759;DHT22;15148;48.972;12.794;2023-05-20T03:01:29;13.40;99.90
27759;DHT22;15148;48.972;12.794;2023-05-20T03:06:31;13.40;99.90
27759;DHT22;15148;48.972;12.794;2023-05-20T03:11:33;13.40;99.90
27759;DHT22;15148;48.972;12.794;2023-05-20T03:16:35;13.40;99.90
27759;DHT22;15148;48.972;12.794;2023-05-20T03:21:37;13.40;99.90
27759;DHT22;15148;48.972;12.794;2023-05-20T03:26:38;13.40;99.90
27759;DHT22;15148;48.972;12.794;2023-05-20T03:31:44;13.40;99.90
27759;DHT22;15148;48.972;12.794;2023-05-20T03:36:46;13.40;99.90
27759;DHT22;15148;48.972;12.794;2023-05-20T03:41:48;13.40;99.90
27759;DHT22;15148;48.972;12.794;2023-05-20T03:46:50;13.40;99.90
27759;DHT22;15148;48.972;12.794;2023-05-20T03:51:52;13.40;99.90
27759;DHT22;15148;48.972;12.794;2023-05-20T03:56:54;13.40;99.90
27759;DHT22;15148;48.972;12.794;2023-05-20T04:01:57;13.30;99.90
27759;DHT22;15148;48.972;12.794;2023-05-20T04:06:59;13.30;99.90
27759;DHT22;15148;48.972;12.794;2023-05-20T04:12:05;13.40;99.90
27759;DHT22;15148;48.972;12.794;2023-05-20T04:17:08;13.40;99.90
27759;DHT22;15148;48.972;12.794;2023-05-20T04:22:10;13.40;99.90
27759;DHT22;15148;48.972;12.794;2023-05-20T04:27:12;13.50;99.90
27759;DHT22;15148;48.972;12.794;2023-05-20T04:32:17;13.60;99.90
27759;DHT22;15148;48.972;12.794;2023-05-20T04:37:21;13.60;99.90
27759;DHT22;15148;48.972;12.794;2023-05-20T04:42:24;13.70;99.90
27759;DHT22;15148;48.972;12.794;2023-05-20T04:47:27;13.90;99.90
27759;DHT22;15148;48.972;12.794;2023-05-20T04:52:32;14.00;99.90
27759;DHT22;15148;48.972;12.794;2023-05-20T04:57:34;14.10;99.90
27759;DHT22;15148;48.972;12.794;2023-05-20T05:02:39;14.20;99.90
27759;DHT22;15148;48.972;12.794;2023-05-20T05:07:42;14.40;99.90
27759;DHT22;15148;48.972;12.794;2023-05-20T05:12:45;14.50;99.90
27759;DHT22;15148;48.972;12.794;2023-05-20T05:17:50;14.80;99.90
27759;DHT22;15148;48.972;12.794;2023-05-20T05:22:52;16.10;99.90
27759;DHT22;15148;48.972;12.794;2023-05-20T05:27:54;18.50;99.90
27759;DHT22;15148;48.972;12.794;2023-05-20T05:32:57;19.90;99.90
27759;DHT22;15148;48.972;12.794;2023-05-20T05:37:59;20.00;99.90
27759;DHT22;15148;48.972;12.794;2023-05-20T05:43:02;21.00;99.90
27759;DHT22;15148;48.972;12.794;2023-05-20T05:48:05;23.80;99.90
27759;DHT22;15148;48.972;12.794;2023-05-20T05:53:07;25.00;97.60
27759;DHT22;15148;48.972;12.794;2023-05-20T05:58:11;24.90;95.50
27759;DHT22;15148;48.972;12.794;2023-05-20T06:03:13;24.30;94.70
27759;DHT22;15148;48.972;12.794;2023-05-20T06:08:15;24.30;98.50
27759;DHT22;15148;48.972;12.794;2023-05-20T06:13:18;24.00;95.60
27759;DHT22;15148;48.972;12.794;2023-05-20T06:18:20;23.70;97.70
27759;DHT22;15148;48.972;12.794;2023-05-20T06:23:26;23.10;98.10
27759;DHT22;15148;48.972;12.794;2023-05-20T06:28:32;22.80;99.90
27759;DHT22;15148;48.972;12.794;2023-05-20T06:33:34;22.30;99.90
27759;DHT22;15148;48.972;12.794;2023-05-20T06:38:40;22.00;99.90
27759;DHT22;15148;48.972;12.794;2023-05-20T06:43:46;22.00;99.90
27759;DHT22;15148;48.972;12.794;2023-05-20T06:49:11;21.80;99.90
27759;DHT22;15148;48.972;12.794;2023-05-20T06:54:13;21.80;99.90
27759;DHT22;15148;48.972;12.794;2023-05-20T06:59:16;21.90;99.90
27759;DHT22;15148;48.972;12.794;2023-05-20T07:04:18;21.80;99.90
27759;DHT22;15148;48.972;12.794;2023-05-20T07:09:21;21.80;99.90
27759;DHT22;15148;48.972;12.794;2023-05-20T07:14:24;22.10;99.90
27759;DHT22;15148;48.972;12.794;2023-05-20T07:19:26;22.20;99.90
27759;DHT22;15148;48.972;12.794;2023-05-20T07:24:28;22.20;99.40
27759;DHT22;15148;48.972;12.794;2023-05-20T07:29:31;22.20;99.90
27759;DHT22;15148;48.972;12.794;2023-05-20T07:34:33;22.30;99.90
27759;DHT22;15148;48.972;12.794;2023-05-20T07:39:35;22.50;99.90
27759;DHT22;15148;48.972;12.794;2023-05-20T07:44:40;22.60;99.90
27759;DHT22;15148;48.972;12.794;2023-05-20T07:49:42;22.70;94.40
27759;DHT22;15148;48.972;12.794;2023-05-20T07:54:45;22.80;95.30
27759;DHT22;15148;48.972;12.794;2023-05-20T07:59:49;22.90;95.40
27759;DHT22;15148;48.972;12.794;2023-05-20T08:04:51;22.90;92.90
27759;DHT22;15148;48.972;12.794;2023-05-20T08:09:54;22.90;93.60
27759;DHT22;15148;48.972;12.794;2023-05-20T08:14:56;22.80;92.00
27759;DHT22;15148;48.972;12.794;2023-05-20T08:19:58;22.70;93.50
27759;DHT22;15148;48.972;12.794;2023-05-20T08:24:59;23.00;92.80
27759;DHT22;15148;48.972;12.794;2023-05-20T08:30:03;23.30;92.60
27759;DHT22;15148;48.972;12.794;2023-05-20T08:35:06;23.50;93.80
27759;DHT22;15148;48.972;12.794;2023-05-20T08:40:09;23.40;91.10
27759;DHT22;15148;48.972;12.794;2023-05-20T08:45:16;23.40;90.80
27759;DHT22;15148;48.972;12.794;2023-05-20T08:50:18;23.40;91.10
27759;DHT22;15148;48.972;12.794;2023-05-20T08:55:25;23.10;90.00
27759;DHT22;15148;48.972;12.794;2023-05-20T09:00:27;23.30;90.50
27759;DHT22;15148;48.972;12.794;2023-05-20T09:05:29;23.60;91.50
27759;DHT22;15148;48.972;12.794;2023-05-20T09:10:32;23.70;90.30
27759;DHT22;15148;48.972;12.794;2023-05-20T09:15:35;23.80;90.70
27759;DHT22;15148;48.972;12.794;2023-05-20T09:20:38;23.80;89.30
27759;DHT22;15148;48.972;12.794;2023-05-20T09:25:41;23.50;86.10
27759;DHT22;15148;48.972;12.794;2023-05-20T09:30:43;23.20;87.30
27759;DHT22;15148;48.972;12.794;2023-05-20T09:35:48;23.20;86.70
27759;DHT22;15148;48.972;12.794;2023-05-20T09:40:50;23.50;90.10
27759;DHT22;15148;48.972;12.794;2023-05-20T09:45:52;23.80;86.80
27759;DHT22;15148;48.972;12.794;2023-05-20T09:50:56;24.10;90.20
27759;DHT22;15148;48.972;12.794;2023-05-20T09:55:58;24.30;87.80
27759;DHT22;15148;48.972;12.794;2023-05-20T10:01:00;24.30;86.70
27759;DHT22;15148;48.972;12.794;2023-05-20T10:11:53;24.50;88.60
27759;DHT22;15148;48.972;12.794;2023-05-20T10:17:05;24.30;87.80
27759;DHT22;15148;48.972;12.794;2023-05-20T10:22:10;23.90;86.60
27759;DHT22;15148;48.972;12.794;2023-05-20T10:27:13;23.80;86.40
27759;DHT22;15148;48.972;12.794;2023-05-20T10:32:29;23.70;86.60
27759;DHT22;15148;48.972;12.794;2023-05-20T10:37:41;24.00;87.90
27759;DHT22;15148;48.972;12.794;2023-05-20T10:42:44;24.10;83.60
27759;DHT22;15148;48.972;12.794;2023-05-20T10:47:58;24.00;84.20
27759;DHT22;15148;48.972;12.794;2023-05-20T10:53:05;23.70;80.70
27759;DHT22;15148;48.972;12.794;2023-05-20T10:58:13;23.70;89.10
27759;DHT22;15148;48.972;12.794;2023-05-20T11:03:16;23.80;87.00
27759;DHT22;15148;48.972;12.794;2023-05-20T11:08:19;24.10;83.20
27759;DHT22;15148;48.972;12.794;2023-05-20T11:13:30;24.30;82.80
27759;DHT22;15148;48.972;12.794;2023-05-20T11:18:32;24.50;82.10
27759;DHT22;15148;48.972;12.794;2023-05-20T11:23:34;24.60;81.80
27759;DHT22;15148;48.972;12.794;2023-05-20T11:28:37;24.80;80.90
27759;DHT22;15148;48.972;12.794;2023-05-20T11:33:41;25.00;76.90
27759;DHT22;15148;48.972;12.794;2023-05-20T11:38:45;24.90;77.70
27759;DHT22;15148;48.972;12.794;2023-05-20T11:43:55;24.80;79.40
27759;DHT22;15148;48.972;12.794;2023-05-20T11:48:57;24.60;76.80
27759;DHT22;15148;48.972;12.794;2023-05-20T11:54:01;24.40;77.80
27759;DHT22;15148;48.972;12.794;2023-05-20T11:59:04;24.20;77.70
27759;DHT22;15148;48.972;12.794;2023-05-20T12:04:08;24.20;80.30
27759;DHT22;15148;48.972;12.794;2023-05-20T12:09:11;24.00;81.60
27759;DHT22;15148;48.972;12.794;2023-05-20T12:14:14;23.80;77.70
27759;DHT22;15148;48.972;12.794;2023-05-20T12:19:16;23.60;81.10
27759;DHT22;15148;48.972;12.794;2023-05-20T12:24:18;23.60;81.60
27759;DHT22;15148;48.972;12.794;2023-05-20T12:29:20;23.50;78.90
27759;DHT22;15148;48.972;12.794;2023-05-20T12:34:22;23.50;81.30
27759;DHT22;15148;48.972;12.794;2023-05-20T12:39:24;23.30;81.70
27759;DHT22;15148;48.972;12.794;2023-05-20T12:44:26;23.40;79.90
27759;DHT22;15148;48.972;12.794;2023-05-20T12:49:28;23.40;78.90
27759;DHT22;15148;48.972;12.794;2023-05-20T12:54:30;23.30;81.70
27759;DHT22;15148;48.972;12.794;2023-05-20T12:59:32;23.50;82.10
27759;DHT22;15148;48.972;12.794;2023-05-20T13:04:34;23.60;81.80
27759;DHT22;15148;48.972;12.794;2023-05-20T13:09:36;23.70;83.50
27759;DHT22;15148;48.972;12.794;2023-05-20T13:14:38;23.80;82.20
27759;DHT22;15148;48.972;12.794;2023-05-20T13:19:42;23.90;80.20
27759;DHT22;15148;48.972;12.794;2023-05-20T13:24:44;24.10;81.60
27759;DHT22;15148;48.972;12.794;2023-05-20T13:29:46;24.10;81.00
27759;DHT22;15148;48.972;12.794;2023-05-20T13:34:51;24.00;75.50
27759;DHT22;15148;48.972;12.794;2023-05-20T13:39:52;24.00;74.30
27759;DHT22;15148;48.972;12.794;2023-05-20T13:44:54;24.00;76.80
27759;DHT22;15148;48.972;12.794;2023-05-20T13:49:56;24.10;75.90
27759;DHT22;15148;48.972;12.794;2023-05-20T13:55:00;24.20;75.10
27759;DHT22;15148;48.972;12.794;2023-05-20T14:00:03;24.30;77.80
27759;DHT22;15148;48.972;12.794;2023-05-20T14:05:09;24.40;72.80
27759;DHT22;15148;48.972;12.794;2023-05-20T14:10:11;24.40;74.20
27759;DHT22;15148;48.972;12.794;2023-05-20T14:15:13;24.30;73.00
27759;DHT22;15148;48.972;12.794;2023-05-20T14:20:15;24.20;73.80
27759;DHT22;15148;48.972;12.794;2023-05-20T14:25:17;24.00;77.00
27759;DHT22;15148;48.972;12.794;2023-05-20T14:30:19;23.80;75.80
27759;DHT22;15148;48.972;12.794;2023-05-20T14:35:21;23.50;73.00
27759;DHT22;15148;48.972;12.794;2023-05-20T14:40:23;23.40;76.00
27759;DHT22;15148;48.972;12.794;2023-05-20T14:45:25;23.30;79.70
27759;DHT22;15148;48.972;12.794;2023-05-20T14:50:27;23.20;82.70
27759;DHT22;15148;48.972;12.794;2023-05-20T14:55:28;23.20;80.20
27759;DHT22;15148;48.972;12.794;2023-05-20T15:00:30;23.10;79.40
27759;DHT22;15148;48.972;12.794;2023-05-20T15:05:33;23.10;79.70
27759;DHT22;15148;48.972;12.794;2023-05-20T15:10:35;23.10;79.20
27759;DHT22;15148;48.972;12.794;2023-05-20T15:15:37;23.10;79.40
27759;DHT22;15148;48.972;12.794;2023-05-20T15:20:39;23.10;81.80
27759;DHT22;15148;48.972;12.794;2023-05-20T15:25:42;23.10;79.80
27759;DHT22;15148;48.972;12.794;2023-05-20T15:30:44;23.10;78.50
27759;DHT22;15148;48.972;12.794;2023-05-20T15:35:47;22.90;81.40
27759;DHT22;15148;48.972;12.794;2023-05-20T15:40:49;22.90;80.50
27759;DHT22;15148;48.972;12.794;2023-05-20T15:45:51;22.90;76.90
27759;DHT22;15148;48.972;12.794;2023-05-20T15:50:54;22.90;79.90
27759;DHT22;15148;48.972;12.794;2023-05-20T15:55:57;22.80;80.60
27759;DHT22;15148;48.972;12.794;2023-05-20T16:00:59;22.80;78.30
27759;DHT22;15148;48.972;12.794;2023-05-20T16:06:00;22.80;80.90
27759;DHT22;15148;48.972;12.794;2023-05-20T16:11:03;22.70;78.80
27759;DHT22;15148;48.972;12.794;2023-05-20T16:16:08;22.60;81.50
27759;DHT22;15148;48.972;12.794;2023-05-20T16:21:10;22.60;82.60
27759;DHT22;15148;48.972;12.794;2023-05-20T16:26:12;22.40;81.30
27759;DHT22;15148;48.972;12.794;2023-05-20T16:31:14;22.20;83.80
27759;DHT22;15148;48.972;12.794;2023-05-20T16:36:16;22.20;80.80
27759;DHT22;15148;48.972;12.794;2023-05-20T16:41:18;22.20;82.10
27759;DHT22;15148;48.972;12.794;2023-05-20T16:46:20;22.20;82.80
27759;DHT22;15148;48.972;12.794;2023-05-20T16:51:23;22.20;83.90
27759;DHT22;15148;48.972;12.794;2023-05-20T16:56:25;22.10;86.60
27759;DHT22;15148;48.972;12.794;2023-05-20T17:01:27;22.10;83.80
27759;DHT22;15148;48.972;12.794;2023-05-20T17:06:29;22.10;85.30
27759;DHT22;15148;48.972;12.794;2023-05-20T17:11:34;22.10;90.00
27759;DHT22;15148;48.972;12.794;2023-05-20T17:16:36;22.10;84.20
27759;DHT22;15148;48.972;12.794;2023-05-20T17:21:39;22.00;84.60
27759;DHT22;15148;48.972;12.794;2023-05-20T17:26:41;21.80;89.60
27759;DHT22;15148;48.972;12.794;2023-05-20T17:31:43;21.60;90.30
27759;DHT22;15148;48.972;12.794;2023-05-20T17:36:45;21.50;91.60
27759;DHT22;15148;48.972;12.794;2023-05-20T17:41:47;21.30;94.30
27759;DHT22;15148;48.972;12.794;2023-05-20T17:46:48;21.20;97.30
27759;DHT22;15148;48.972;12.794;2023-05-20T17:51:51;21.10;99.90
27759;DHT22;15148;48.972;12.794;2023-05-20T17:56:53;21.00;99.90
27759;DHT22;15148;48.972;12.794;2023-05-20T18:01:55;20.90;99.90
27759;DHT22;15148;48.972;12.794;2023-05-20T18:06:57;20.80;99.90
27759;DHT22;15148;48.972;12.794;2023-05-20T18:11:59;20.70;99.90
27759;DHT22;15148;48.972;12.794;2023-05-20T18:17:01;20.60;99.90
27759;DHT22;15148;48.972;12.794;2023-05-20T18:22:03;20.40;99.90
27759;DHT22;15148;48.972;12.794;2023-05-20T18:27:07;20.30;99.90
27759;DHT22;15148;48.972;12.794;2023-05-20T18:32:09;20.30;99.90
27759;DHT22;15148;48.972;12.794;2023-05-20T18:37:11;20.20;99.90
27759;DHT22;15148;48.972;12.794;2023-05-20T18:42:13;20.00;99.90
27759;DHT22;15148;48.972;12.794;2023-05-20T18:47:15;19.90;99.90
27759;DHT22;15148;48.972;12.794;2023-05-20T18:52:17;19.70;99.90
27759;DHT22;15148;48.972;12.794;2023-05-20T18:57:19;19.60;99.90
27759;DHT22;15148;48.972;12.794;2023-05-20T19:02:23;19.50;99.90
27759;DHT22;15148;48.972;12.794;2023-05-20T19:07:24;19.50;99.90
27759;DHT22;15148;48.972;12.794;2023-05-20T19:12:26;19.40;99.90
27759;DHT22;15148;48.972;12.794;2023-05-20T19:17:28;19.40;99.90
27759;DHT22;15148;48.972;12.794;2023-05-20T19:22:30;19.40;99.90
27759;DHT22;15148;48.972;12.794;2023-05-20T19:27:32;19.40;99.90
27759;DHT22;15148;48.972;12.794;2023-05-20T19:32:34;19.30;99.90
27759;DHT22;15148;48.972;12.794;2023-05-20T19:37:36;19.30;99.90
27759;DHT22;15148;48.972;12.794;2023-05-20T19:42:38;19.10;99.90
27759;DHT22;15148;48.972;12.794;2023-05-20T19:47:40;19.10;99.90
27759;DHT22;15148;48.972;12.794;2023-05-20T19:52:42;19.10;99.90
27759;DHT22;15148;48.972;12.794;2023-05-20T19:57:44;19.10;99.90
27759;DHT22;15148;48.972;12.794;2023-05-20T20:02:48;19.10;99.90
27759;DHT22;15148;48.972;12.794;2023-05-20T20:07:50;19.10;99.90
27759;DHT22;15148;48.972;12.794;2023-05-20T20:12:52;19.00;99.90
27759;DHT22;15148;48.972;12.794;2023-05-20T20:17:54;18.90;99.90
27759;DHT22;15148;48.972;12.794;2023-05-20T20:22:56;18.90;99.90
27759;DHT22;15148;48.972;12.794;2023-05-20T20:27:58;18.80;99.90
27759;DHT22;15148;48.972;12.794;2023-05-20T20:33:00;18.80;99.90
27759;DHT22;15148;48.972;12.794;2023-05-20T20:38:03;18.80;99.90
27759;DHT22;15148;48.972;12.794;2023-05-20T20:43:11;18.80;99.90
27759;DHT22;15148;48.972;12.794;2023-05-20T20:48:22;18.70;99.90
27759;DHT22;15148;48.972;12.794;2023-05-20T20:53:27;18.80;99.90
27759;DHT22;15148;48.972;12.794;2023-05-20T20:58:29;18.80;99.90
27759;DHT22;15148;48.972;12.794;2023-05-20T21:03:35;18.70;99.90
27759;DHT22;15148;48.972;12.794;2023-05-20T21:08:41;18.70;99.90
27759;DHT22;15148;48.972;12.794;2023-05-20T21:13:43;18.70;99.90
27759;DHT22;15148;48.972;12.794;2023-05-20T21:18:44;18.60;99.90
27759;DHT22;15148;48.972;12.794;2023-05-20T21:23:47;18.60;99.90
27759;DHT22;15148;48.972;12.794;2023-05-20T21:28:51;18.70;99.90
27759;DHT22;15148;48.972;12.794;2023-05-20T21:33:53;18.60;99.90
27759;DHT22;15148;48.972;12.794;2023-05-20T21:38:55;18.60;99.90
27759;DHT22;15148;48.972;12.794;2023-05-20T21:43:57;18.60;99.90
27759;DHT22;15148;48.972;12.794;2023-05-20T21:48:59;18.50;99.90
27759;DHT22;15148;48.972;12.794;2023-05-20T21:54:01;18.40;99.90
27759;DHT22;15148;48.972;12.794;2023-05-20T21:59:03;18.40;99.90
27759;DHT22;15148;48.972;12.794;2023-05-20T22:04:04;18.40;99.90
27759;DHT22;15148;48.972;12.794;2023-05-20T22:09:07;18.50;99.90
27759;DHT22;15148;48.972;12.794;2023-05-20T22:14:10;18.50;99.90
27759;DHT22;15148;48.972;12.794;2023-05-20T22:19:13;18.40;99.90
27759;DHT22;15148;48.972;12.794;2023-05-20T22:24:15;18.30;99.90
27759;DHT22;15148;48.972;12.794;2023-05-20T22:29:18;18.30;99.90
27759;DHT22;15148;48.972;12.794;2023-05-20T22:34:20;18.40;99.90
27759;DHT22;15148;48.972;12.794;2023-05-20T22:39:22;18.40;99.90
27759;DHT22;15148;48.972;12.794;2023-05-20T22:44:23;18.30;99.90
27759;DHT22;15148;48.972;12.794;2023-05-20T22:49:25;18.40;99.90
27759;DHT22;15148;48.972;12.794;2023-05-20T22:54:28;18.30;99.90
27759;DHT22;15148;48.972;12.794;2023-05-20T22:59:30;18.30;99.90
27759;DHT22;15148;48.972;12.794;2023-05-20T23:04:32;18.30;99.90
27759;DHT22;15148;48.972;12.794;2023-05-20T23:09:34;18.30;99.90
27759;DHT22;15148;48.972;12.794;2023-05-20T23:14:36;18.40;99.90
27759;DHT22;15148;48.972;12.794;2023-05-20T23:19:38;18.40;99.90
27759;DHT22;15148;48.972;12.794;2023-05-20T23:24:40;18.40;99.90
27759;DHT22;15148;48.972;12.794;2023-05-20T23:29:42;18.50;99.90
27759;DHT22;15148;48.972;12.794;2023-05-20T23:34:44;18.40;99.90
27759;DHT22;15148;48.972;12.794;2023-05-20T23:39:47;18.40;99.90
27759;DHT22;15148;48.972;12.794;2023-05-20T23:44:48;18.40;99.90
27759;DHT22;15148;48.972;12.794;2023-05-20T23:49:51;18.40;99.90
27759;DHT22;15148;48.972;12.794;2023-05-20T23:54:56;18.40;99.90
27759;DHT22;15148;48.972;12.794;2023-05-20T23:59:59;18.40;99.90
